Time;durP1;ratioP1;P1;durP2;ratioP2;P2;SDS_P1;SDS_P2;PMS_P1;PMS_P2;Temp;Humidity;BMP_temperature;BMP_pressure;BME280_temperature;BME280_humidity;BME280_pressure;Samples;Min_cycle;Max_cycle;Signal;HPM_P1;HPM_P2
2021/12/30 00:00:36;;;;;;;1.73;0.60;;;17.10;75.80;;;;;;5084128;28;20772;-49
2021/12/30 00:03:02;;;;;;;1.70;0.97;;;17.10;75.40;;;;;;5086772;28;20513;-52
2021/12/30 00:05:28;;;;;;;1.13;0.70;;;17.20;75.00;;;;;;5078896;28;20429;-48
2021/12/30 00:07:54;;;;;;;0.73;0.70;;;17.10;74.60;;;;;;5087875;28;20441;-49
2021/12/30 00:10:19;;;;;;;1.07;0.70;;;17.10;74.40;;;;;;5087348;28;20206;-48
2021/12/30 00:12:46;;;;;;;0.70;0.60;;;17.10;74.60;;;;;;5088009;28;20230;-48
2021/12/30 00:15:12;;;;;;;0.80;0.80;;;17.20;74.00;;;;;;5078738;28;20253;-48
2021/12/30 00:17:38;;;;;;;1.03;0.80;;;17.30;73.30;;;;;;5083273;28;20436;-48
2021/12/30 00:20:05;;;;;;;2.20;0.80;;;17.20;73.10;;;;;;5082879;28;20461;-49
2021/12/30 00:22:31;;;;;;;2.17;0.87;;;17.20;72.50;;;;;;5088601;28;20214;-49
2021/12/30 00:24:57;;;;;;;0.90;0.70;;;17.20;72.80;;;;;;5087461;28;20502;-51
2021/12/30 00:27:23;;;;;;;0.90;0.83;;;17.20;72.40;;;;;;5079913;28;20921;-52
2021/12/30 00:29:48;;;;;;;1.73;0.70;;;17.30;72.20;;;;;;5084322;28;20219;-49
2021/12/30 00:32:14;;;;;;;1.27;0.70;;;17.40;71.90;;;;;;5078595;28;20261;-51
2021/12/30 00:34:39;;;;;;;0.70;0.70;;;17.50;71.40;;;;;;5087572;28;20187;-49
2021/12/30 00:37:05;;;;;;;6.93;0.80;;;17.50;71.30;;;;;;5079036;28;20237;-48
2021/12/30 00:39:31;;;;;;;1.53;0.70;;;17.50;71.30;;;;;;5079619;28;20191;-52
2021/12/30 00:41:56;;;;;;;0.63;0.63;;;17.40;71.20;;;;;;5084487;28;20196;-51
2021/12/30 00:44:22;;;;;;;1.37;0.97;;;17.30;70.80;;;;;;5083332;28;20702;-50
2021/12/30 00:46:48;;;;;;;1.30;0.87;;;17.30;71.20;;;;;;5084604;28;20211;-51
2021/12/30 00:49:14;;;;;;;1.00;0.87;;;17.40;70.90;;;;;;5084933;28;20189;-49
2021/12/30 00:51:40;;;;;;;1.70;1.23;;;17.10;70.80;;;;;;5084655;28;20838;-51
2021/12/30 00:54:06;;;;;;;1.03;0.90;;;16.90;71.70;;;;;;5082178;28;20199;-51
2021/12/30 00:56:31;;;;;;;1.43;0.70;;;16.90;71.70;;;;;;5087390;28;20425;-51
2021/12/30 00:58:57;;;;;;;2.03;1.20;;;16.70;72.30;;;;;;5087192;28;20545;-53
2021/12/30 01:01:24;;;;;;;0.90;0.77;;;16.70;72.40;;;;;;5083179;28;20234;-52
2021/12/30 01:03:51;;;;;;;3.37;1.00;;;16.80;72.50;;;;;;5091581;28;20223;-51
2021/12/30 01:06:16;;;;;;;1.37;0.80;;;16.80;71.80;;;;;;5082507;28;20429;-48
2021/12/30 01:08:42;;;;;;;2.20;1.50;;;16.90;71.60;;;;;;5090098;28;20436;-48
2021/12/30 01:11:08;;;;;;;1.23;0.93;;;16.90;71.70;;;;;;5083323;28;20219;-48
2021/12/30 01:13:40;;;;;;;1.87;0.80;;;16.80;71.50;;;;;;5091534;28;20188;-48
2021/12/30 01:16:17;;;;;;;1.20;1.10;;;16.70;71.60;;;;;;5092158;28;20437;-48
2021/12/30 01:19:16;;;;;;;1.10;1.00;;;16.70;71.70;;;;;;5086161;28;20465;-52
2021/12/30 01:21:43;;;;;;;1.23;0.90;;;16.70;71.80;;;;;;5076621;28;20796;-52
2021/12/30 01:24:09;;;;;;;4.50;1.10;;;16.80;71.30;;;;;;5082395;28;20521;-51
2021/12/30 01:26:35;;;;;;;1.87;1.20;;;16.80;71.20;;;;;;5086414;28;20520;-52
2021/12/30 01:29:01;;;;;;;2.20;0.80;;;16.70;71.30;;;;;;5081510;28;20545;-52
2021/12/30 01:31:26;;;;;;;1.63;0.83;;;16.80;71.10;;;;;;5079007;28;20223;-52
2021/12/30 01:33:52;;;;;;;2.20;1.00;;;17.00;70.20;;;;;;5083413;28;20197;-51
2021/12/30 01:36:18;;;;;;;2.60;1.20;;;17.10;69.90;;;;;;5090096;28;20721;-51
2021/12/30 01:38:45;;;;;;;0.80;0.70;;;16.90;69.90;;;;;;5085859;28;20198;-52
2021/12/30 01:41:11;;;;;;;1.27;0.90;;;16.80;70.20;;;;;;5089220;28;20520;-51
2021/12/30 01:43:37;;;;;;;1.27;0.90;;;16.80;70.40;;;;;;5083966;28;20483;-51
2021/12/30 01:46:04;;;;;;;1.60;0.80;;;16.70;70.80;;;;;;5083257;28;20438;-50
2021/12/30 01:48:30;;;;;;;5.50;1.37;;;16.60;70.70;;;;;;5083581;28;20436;-51
2021/12/30 01:50:56;;;;;;;1.87;0.67;;;16.70;70.60;;;;;;5080798;28;20819;-52
2021/12/30 01:53:22;;;;;;;1.90;0.77;;;16.80;70.20;;;;;;5080373;28;20192;-50
2021/12/30 01:55:49;;;;;;;1.13;0.70;;;16.80;70.20;;;;;;5083594;28;20601;-52
2021/12/30 01:58:16;;;;;;;2.30;1.00;;;16.80;70.20;;;;;;5081648;28;20202;-51
2021/12/30 02:00:44;;;;;;;4.20;0.90;;;16.80;70.00;;;;;;5082844;28;20437;-52
2021/12/30 02:03:11;;;;;;;1.27;1.00;;;16.80;69.80;;;;;;5084269;28;20461;-52
2021/12/30 02:05:38;;;;;;;2.27;0.77;;;16.90;69.70;;;;;;5087985;28;20465;-50
2021/12/30 02:08:12;;;;;;;2.00;0.80;;;17.00;69.70;;;;;;5090784;28;20542;-51
2021/12/30 02:10:39;;;;;;;1.27;0.80;;;17.10;69.10;;;;;;5089874;28;20460;-51
2021/12/30 02:13:05;;;;;;;6.10;1.10;;;17.10;68.90;;;;;;5085425;28;20489;-50
2021/12/30 02:15:31;;;;;;;0.80;0.80;;;17.20;68.50;;;;;;5081874;28;20494;-50
2021/12/30 02:17:59;;;;;;;1.03;0.80;;;17.20;68.00;;;;;;5081566;28;20656;-51
2021/12/30 02:20:44;;;;;;;0.90;0.70;;;17.00;68.40;;;;;;5086160;28;20203;-52
2021/12/30 02:23:10;;;;;;;2.30;1.10;;;17.20;68.00;;;;;;5082740;28;20440;-50
2021/12/30 02:25:36;;;;;;;2.13;0.90;;;17.00;67.90;;;;;;5081072;28;20449;-53
2021/12/30 02:28:10;;;;;;;3.10;1.13;;;16.90;68.60;;;;;;5083529;28;20520;-51
2021/12/30 02:30:37;;;;;;;2.13;0.90;;;17.00;68.60;;;;;;5084819;28;20499;-52
2021/12/30 02:33:03;;;;;;;1.60;0.93;;;17.00;68.60;;;;;;5082791;28;20839;-50
2021/12/30 02:35:31;;;;;;;2.93;0.93;;;17.10;68.20;;;;;;5080458;28;20514;-52
2021/12/30 02:37:57;;;;;;;2.70;1.20;;;17.30;68.10;;;;;;5082693;28;20509;-52
2021/12/30 02:40:28;;;;;;;1.00;0.73;;;17.40;67.50;;;;;;5080412;28;21542;-51
2021/12/30 02:42:54;;;;;;;1.30;1.20;;;17.50;67.20;;;;;;5083055;28;20544;-48
2021/12/30 02:45:20;;;;;;;3.50;1.30;;;17.50;66.60;;;;;;5086633;28;20449;-53
2021/12/30 02:47:46;;;;;;;1.33;1.17;;;17.50;66.60;;;;;;5083337;28;20509;-51
2021/12/30 02:50:12;;;;;;;2.00;0.90;;;17.50;66.60;;;;;;5080754;28;20581;-50
2021/12/30 02:52:38;;;;;;;1.90;0.80;;;17.50;66.30;;;;;;5082132;28;20488;-52
2021/12/30 02:55:04;;;;;;;1.40;1.10;;;17.50;66.30;;;;;;5084114;28;20433;-50
2021/12/30 02:57:30;;;;;;;1.00;0.90;;;17.60;66.10;;;;;;5083283;28;20195;-52
2021/12/30 02:59:55;;;;;;;1.77;1.07;;;17.50;66.10;;;;;;5078355;28;20483;-51
2021/12/30 03:02:21;;;;;;;1.50;1.00;;;17.50;66.00;;;;;;5081942;28;20620;-51
2021/12/30 03:04:47;;;;;;;1.30;0.90;;;17.60;65.80;;;;;;5080477;28;20196;-52
2021/12/30 03:07:17;;;;;;;1.30;0.97;;;17.70;65.60;;;;;;5084164;28;20632;-52
2021/12/30 03:09:46;;;;;;;2.33;0.80;;;17.70;65.40;;;;;;5084022;28;20967;-51
2021/12/30 03:12:13;;;;;;;2.57;1.20;;;17.70;65.20;;;;;;5084194;28;20485;-52
2021/12/30 03:14:42;;;;;;;3.13;1.03;;;17.70;65.00;;;;;;5079927;28;20421;-48
2021/12/30 03:17:09;;;;;;;0.93;0.80;;;17.80;65.40;;;;;;5080493;28;20874;-52
2021/12/30 03:19:35;;;;;;;1.00;0.90;;;17.60;66.00;;;;;;5079236;28;20967;-52
2021/12/30 03:22:01;;;;;;;3.37;1.00;;;17.60;66.30;;;;;;5085538;28;20421;-50
2021/12/30 03:24:26;;;;;;;2.97;1.03;;;17.70;65.90;;;;;;5080547;28;20598;-52
2021/12/30 03:26:52;;;;;;;3.93;1.20;;;17.60;65.90;;;;;;5080699;28;20430;-51
2021/12/30 03:29:18;;;;;;;0.80;0.70;;;17.60;66.30;;;;;;5080288;28;20184;-51
2021/12/30 03:31:43;;;;;;;2.40;0.80;;;17.30;67.50;;;;;;5082261;28;20597;-52
2021/12/30 03:34:09;;;;;;;1.13;0.77;;;17.20;68.70;;;;;;5086413;28;20556;-48
2021/12/30 03:36:37;;;;;;;0.77;0.77;;;17.30;68.80;;;;;;5085935;28;20683;-49
2021/12/30 03:39:03;;;;;;;1.20;0.60;;;17.40;68.70;;;;;;5087864;28;20670;-48
2021/12/30 03:41:30;;;;;;;3.33;1.27;;;17.40;69.00;;;;;;5081742;28;20499;-51
2021/12/30 03:44:00;;;;;;;1.93;0.90;;;17.50;68.70;;;;;;5082834;28;20478;-51
2021/12/30 03:46:27;;;;;;;4.30;0.90;;;17.50;68.80;;;;;;5078492;28;20426;-48
2021/12/30 03:48:53;;;;;;;1.93;0.97;;;17.50;69.00;;;;;;5081036;28;20449;-50
2021/12/30 03:51:22;;;;;;;0.60;0.60;;;17.70;68.50;;;;;;5077790;28;20570;-51
2021/12/30 03:53:49;;;;;;;0.90;0.70;;;17.80;68.00;;;;;;5083512;28;20283;-51
2021/12/30 03:56:16;;;;;;;0.80;0.80;;;17.90;67.60;;;;;;5080479;28;20433;-52
2021/12/30 03:58:43;;;;;;;1.00;0.70;;;18.00;67.40;;;;;;5083072;28;20438;-47
2021/12/30 04:01:11;;;;;;;1.10;0.70;;;18.10;67.00;;;;;;5085025;28;20519;-52
2021/12/30 04:03:37;;;;;;;3.13;0.93;;;18.20;66.70;;;;;;5082719;28;20905;-51
2021/12/30 04:06:03;;;;;;;1.90;0.90;;;18.20;66.40;;;;;;5076569;28;20437;-50
2021/12/30 04:08:29;;;;;;;1.27;0.77;;;18.30;66.00;;;;;;5083443;28;20513;-52
2021/12/30 04:10:56;;;;;;;2.00;0.90;;;18.40;65.60;;;;;;5083863;28;20198;-49
2021/12/30 04:13:22;;;;;;;1.00;0.90;;;18.50;65.10;;;;;;5088779;28;21089;-52
2021/12/30 04:15:48;;;;;;;1.03;0.90;;;18.60;64.50;;;;;;5081954;28;20480;-51
2021/12/30 04:18:13;;;;;;;1.03;0.80;;;18.70;63.80;;;;;;5078548;28;20429;-50
2021/12/30 04:20:39;;;;;;;1.10;1.00;;;18.90;63.10;;;;;;5083629;28;20184;-50
2021/12/30 04:23:05;;;;;;;0.60;0.60;;;19.00;62.60;;;;;;5081166;28;20215;-50
2021/12/30 04:25:30;;;;;;;3.27;0.90;;;18.90;62.90;;;;;;5083502;28;20195;-51
2021/12/30 04:27:56;;;;;;;3.90;0.97;;;18.90;62.70;;;;;;5087247;28;20199;-51
2021/12/30 04:30:22;;;;;;;2.13;1.10;;;18.90;62.20;;;;;;5089835;28;20876;-48
2021/12/30 04:32:47;;;;;;;3.43;0.63;;;18.80;61.90;;;;;;5088231;28;20685;-49
2021/12/30 04:35:14;;;;;;;0.70;0.70;;;18.70;61.90;;;;;;5083660;28;20195;-51
2021/12/30 04:37:40;;;;;;;0.80;0.80;;;18.70;62.00;;;;;;5087996;28;20188;-48
2021/12/30 04:40:09;;;;;;;1.00;0.80;;;18.80;62.10;;;;;;5085385;28;20604;-51
2021/12/30 04:42:35;;;;;;;2.70;1.07;;;18.80;62.10;;;;;;5083782;28;20444;-51
2021/12/30 04:45:01;;;;;;;1.47;1.00;;;18.80;62.10;;;;;;5087572;28;20425;-49
2021/12/30 04:47:26;;;;;;;0.80;0.80;;;18.80;62.20;;;;;;5084993;28;20198;-50
2021/12/30 04:49:54;;;;;;;2.30;1.10;;;18.80;62.40;;;;;;5084048;28;20437;-52
2021/12/30 04:52:19;;;;;;;1.30;1.00;;;18.70;63.30;;;;;;5087128;28;20231;-49
2021/12/30 04:54:45;;;;;;;0.90;0.80;;;18.60;63.80;;;;;;5083486;28;20948;-48
2021/12/30 04:57:11;;;;;;;1.07;0.83;;;18.60;64.20;;;;;;5083397;28;20196;-52
2021/12/30 04:59:36;;;;;;;1.90;0.93;;;18.60;64.30;;;;;;5087435;28;20245;-49
2021/12/30 05:02:02;;;;;;;2.10;1.00;;;18.60;64.80;;;;;;5083799;28;20198;-52
2021/12/30 05:04:28;;;;;;;3.07;1.00;;;18.70;65.00;;;;;;5088692;28;20671;-53
2021/12/30 05:06:54;;;;;;;1.37;1.10;;;18.70;65.00;;;;;;5086780;28;20531;-49
2021/12/30 05:09:19;;;;;;;1.17;0.93;;;18.70;65.00;;;;;;5086333;28;20216;-51
2021/12/30 05:11:45;;;;;;;1.23;0.73;;;18.80;64.90;;;;;;5084461;28;20220;-51
2021/12/30 05:14:11;;;;;;;0.70;0.70;;;18.90;64.70;;;;;;5079777;28;20670;-51
2021/12/30 05:16:38;;;;;;;1.27;1.10;;;18.90;64.40;;;;;;5085546;28;20214;-51
2021/12/30 05:19:04;;;;;;;1.63;0.90;;;19.00;64.30;;;;;;5089007;28;20469;-52
2021/12/30 05:21:30;;;;;;;1.30;1.10;;;19.00;64.10;;;;;;5084575;28;20435;-52
2021/12/30 05:23:56;;;;;;;1.20;1.10;;;19.10;63.70;;;;;;5085742;28;20460;-53
2021/12/30 05:26:27;;;;;;;1.20;1.10;;;19.10;63.40;;;;;;5083223;28;20253;-52
2021/12/30 05:28:53;;;;;;;1.00;0.73;;;19.10;63.30;;;;;;5079345;28;20278;-49
2021/12/30 05:31:18;;;;;;;2.40;2.20;;;19.10;63.30;;;;;;5085168;28;20530;-49
2021/12/30 05:33:44;;;;;;;1.77;0.77;;;19.10;63.30;;;;;;5086911;28;20441;-51
2021/12/30 05:36:10;;;;;;;2.10;1.07;;;19.10;63.40;;;;;;5089341;28;20195;-49
2021/12/30 05:38:35;;;;;;;1.10;1.10;;;19.10;63.60;;;;;;5088116;28;20187;-49
2021/12/30 05:41:01;;;;;;;0.90;0.83;;;19.00;63.70;;;;;;5081814;28;20271;-52
2021/12/30 05:43:27;;;;;;;0.90;0.90;;;19.00;63.90;;;;;;5084812;28;20223;-49
2021/12/30 05:45:52;;;;;;;0.93;0.93;;;19.10;64.00;;;;;;5082174;28;20199;-50
2021/12/30 05:48:18;;;;;;;1.50;1.40;;;19.00;63.90;;;;;;5083023;28;20210;-50
2021/12/30 05:50:44;;;;;;;0.80;0.80;;;18.80;63.90;;;;;;5080091;28;20215;-49
2021/12/30 05:53:09;;;;;;;2.60;0.93;;;18.80;64.10;;;;;;5085175;28;20223;-51
2021/12/30 05:55:35;;;;;;;1.20;1.10;;;18.80;64.90;;;;;;5080635;28;20939;-49
2021/12/30 05:58:00;;;;;;;1.80;1.00;;;18.60;64.80;;;;;;5084221;28;20198;-51
2021/12/30 06:00:29;;;;;;;0.90;0.90;;;18.50;65.10;;;;;;5084068;28;20299;-49
2021/12/30 06:02:54;;;;;;;1.00;0.90;;;18.50;65.10;;;;;;5090559;28;20204;-52
2021/12/30 06:05:21;;;;;;;1.73;1.10;;;18.50;65.00;;;;;;5089987;28;21434;-49
2021/12/30 06:07:46;;;;;;;2.53;1.07;;;18.50;65.40;;;;;;5090122;28;20199;-52
2021/12/30 06:10:12;;;;;;;1.37;1.10;;;18.50;65.30;;;;;;5086663;28;20821;-48
2021/12/30 06:12:39;;;;;;;2.40;1.60;;;18.60;64.70;;;;;;5083905;28;20265;-48
2021/12/30 06:15:05;;;;;;;3.17;1.80;;;18.50;65.10;;;;;;5084803;28;20453;-51
2021/12/30 06:17:31;;;;;;;4.67;1.60;;;18.40;65.60;;;;;;5079792;28;20468;-50
2021/12/30 06:19:56;;;;;;;1.87;1.57;;;18.40;66.20;;;;;;5080913;28;20988;-50
2021/12/30 06:22:22;;;;;;;1.77;1.33;;;18.50;65.90;;;;;;5079983;28;20598;-52
2021/12/30 06:24:48;;;;;;;1.20;1.10;;;18.60;65.60;;;;;;5099931;28;20207;-50
2021/12/30 06:27:13;;;;;;;3.20;1.37;;;18.70;65.40;;;;;;5081528;28;20191;-52
2021/12/30 06:29:39;;;;;;;3.60;1.90;;;18.70;65.40;;;;;;5089142;28;20616;-50
2021/12/30 06:32:06;;;;;;;1.73;0.90;;;18.70;65.50;;;;;;5085389;28;20759;-51
2021/12/30 06:34:32;;;;;;;4.03;1.30;;;18.60;65.80;;;;;;5084103;28;20187;-52
2021/12/30 06:36:58;;;;;;;3.10;1.40;;;18.50;66.30;;;;;;5088346;28;20488;-49
2021/12/30 06:39:24;;;;;;;1.10;1.00;;;18.40;66.70;;;;;;5084454;28;20433;-51
2021/12/30 06:41:50;;;;;;;1.70;1.30;;;18.40;66.90;;;;;;5084410;28;20863;-51
2021/12/30 06:44:15;;;;;;;1.63;1.30;;;18.40;66.70;;;;;;5082317;28;20195;-49
2021/12/30 06:46:52;;;;;;;0.93;0.93;;;18.50;66.80;;;;;;5084978;28;20267;-48
2021/12/30 06:49:18;;;;;;;1.67;1.03;;;18.50;67.10;;;;;;5087427;28;20215;-49
2021/12/30 06:51:44;;;;;;;1.10;1.00;;;18.50;67.20;;;;;;5083018;28;20507;-49
2021/12/30 06:54:09;;;;;;;2.60;1.60;;;18.50;67.20;;;;;;5087571;28;20227;-52
2021/12/30 06:56:35;;;;;;;1.57;1.03;;;18.40;67.60;;;;;;5081004;28;20192;-52
2021/12/30 06:59:02;;;;;;;1.10;1.00;;;18.40;67.60;;;;;;5087700;28;20191;-52
2021/12/30 07:01:29;;;;;;;1.20;1.20;;;18.50;67.50;;;;;;5075977;28;20426;-50
2021/12/30 07:03:55;;;;;;;2.10;1.33;;;18.50;67.50;;;;;;5084355;28;21062;-51
2021/12/30 07:06:21;;;;;;;1.50;1.20;;;18.40;67.90;;;;;;5085445;28;20478;-48
2021/12/30 07:08:46;;;;;;;1.33;0.90;;;18.40;68.80;;;;;;5083485;28;20747;-48
2021/12/30 07:11:12;;;;;;;1.63;1.53;;;18.40;67.80;;;;;;5080358;28;20275;-51
2021/12/30 07:13:37;;;;;;;1.00;1.00;;;18.40;68.00;;;;;;5089301;28;20236;-52
2021/12/30 07:16:03;;;;;;;2.13;1.00;;;18.30;68.30;;;;;;5084741;28;20188;-51
2021/12/30 07:18:29;;;;;;;1.10;1.00;;;18.20;68.80;;;;;;5085763;28;20246;-48
2021/12/30 07:20:55;;;;;;;0.90;0.90;;;18.00;69.50;;;;;;5087291;28;20975;-52
2021/12/30 07:23:20;;;;;;;1.10;1.00;;;18.10;69.50;;;;;;5082230;28;20195;-48
2021/12/30 07:25:46;;;;;;;0.90;0.90;;;18.10;69.50;;;;;;5085809;28;20191;-49
2021/12/30 07:28:12;;;;;;;1.50;1.10;;;18.20;69.30;;;;;;5083267;28;20221;-49
2021/12/30 07:30:37;;;;;;;1.57;0.90;;;18.10;69.20;;;;;;5088115;28;20191;-49
2021/12/30 07:33:06;;;;;;;1.00;1.00;;;18.20;69.40;;;;;;5084574;28;20281;-49
2021/12/30 07:35:35;;;;;;;1.20;0.80;;;18.20;69.10;;;;;;5086438;28;20195;-49
2021/12/30 07:38:01;;;;;;;0.90;0.90;;;18.30;69.10;;;;;;5084776;28;20495;-48
2021/12/30 07:40:27;;;;;;;0.93;0.80;;;18.30;69.00;;;;;;5087420;28;20433;-48
2021/12/30 07:42:53;;;;;;;4.40;1.00;;;18.40;69.10;;;;;;5082966;28;21001;-51
2021/12/30 07:45:19;;;;;;;0.80;0.80;;;18.10;69.70;;;;;;5082926;28;20225;-48
2021/12/30 07:47:46;;;;;;;0.60;0.60;;;18.20;70.00;;;;;;5083924;28;20948;-48
2021/12/30 07:50:13;;;;;;;1.03;0.97;;;18.20;70.00;;;;;;5073430;28;20249;-51
2021/12/30 07:52:39;;;;;;;1.00;1.00;;;18.00;70.60;;;;;;5080436;28;20484;-49
2021/12/30 07:55:06;;;;;;;3.97;3.73;;;18.00;70.80;;;;;;5080068;28;20849;-52
2021/12/30 07:57:32;;;;;;;1.00;1.00;;;18.00;71.20;;;;;;5081620;28;20486;-50
2021/12/30 07:59:57;;;;;;;0.67;0.67;;;17.90;71.30;;;;;;5080031;28;20430;-50
2021/12/30 08:02:23;;;;;;;0.90;0.90;;;18.00;71.60;;;;;;5086786;28;20209;-50
2021/12/30 08:04:49;;;;;;;0.67;0.67;;;18.10;70.90;;;;;;5090300;28;20202;-51
2021/12/30 08:07:21;;;;;;;2.10;0.53;;;17.90;71.40;;;;;;5088139;28;20308;-48
2021/12/30 08:09:47;;;;;;;0.77;0.70;;;17.70;72.50;;;;;;5087609;28;20314;-48
2021/12/30 08:12:12;;;;;;;3.60;0.70;;;17.80;72.50;;;;;;5083661;28;20581;-48
2021/12/30 08:14:38;;;;;;;1.33;0.70;;;17.70;73.00;;;;;;5091399;28;20967;-48
2021/12/30 08:17:03;;;;;;;0.97;0.80;;;17.70;73.30;;;;;;5089441;28;20210;-49
2021/12/30 08:19:29;;;;;;;1.07;0.80;;;17.70;73.40;;;;;;5081086;28;20259;-49
2021/12/30 08:21:55;;;;;;;1.30;0.90;;;17.80;72.70;;;;;;5086642;28;20183;-50
2021/12/30 08:24:21;;;;;;;1.83;1.47;;;17.70;72.80;;;;;;5088987;28;20647;-49
2021/12/30 08:26:47;;;;;;;1.23;0.90;;;17.80;73.00;;;;;;5088295;28;20194;-48
2021/12/30 08:29:13;;;;;;;1.23;0.97;;;17.90;72.70;;;;;;5093671;28;20425;-48
2021/12/30 08:31:38;;;;;;;1.30;1.00;;;17.90;72.50;;;;;;5091063;28;20487;-49
2021/12/30 08:34:05;;;;;;;3.30;1.10;;;18.10;71.80;;;;;;5092601;28;20196;-48
2021/12/30 08:36:32;;;;;;;1.57;1.30;;;18.20;71.40;;;;;;5088613;28;20191;-51
2021/12/30 08:38:58;;;;;;;0.90;0.90;;;18.30;71.10;;;;;;5092882;28;20769;-49
2021/12/30 08:41:24;;;;;;;0.87;0.70;;;18.20;71.40;;;;;;5087011;28;20956;-49
2021/12/30 08:43:50;;;;;;;1.20;1.10;;;18.30;70.90;;;;;;5089498;28;20429;-52
2021/12/30 08:46:16;;;;;;;1.40;1.03;;;18.30;71.20;;;;;;5076363;28;20442;-50
2021/12/30 08:48:42;;;;;;;2.10;1.10;;;18.10;71.20;;;;;;5080459;28;20655;-50
2021/12/30 08:51:09;;;;;;;1.37;0.80;;;18.10;71.40;;;;;;5084932;28;20437;-49
2021/12/30 08:53:41;;;;;;;1.20;0.80;;;18.10;71.70;;;;;;5084445;28;20188;-49
2021/12/30 08:56:14;;;;;;;0.90;0.90;;;18.20;71.20;;;;;;5082940;28;20445;-50
2021/12/30 08:58:40;;;;;;;5.87;2.00;;;18.20;71.20;;;;;;5087898;28;20956;-49
2021/12/30 09:01:06;;;;;;;2.33;0.97;;;18.20;71.30;;;;;;5083412;28;20456;-50
2021/12/30 09:03:32;;;;;;;0.60;0.53;;;18.10;71.10;;;;;;5077981;28;20441;-49
2021/12/30 09:05:57;;;;;;;1.00;0.70;;;18.10;71.30;;;;;;5078587;28;20453;-49
2021/12/30 09:08:23;;;;;;;1.23;0.83;;;18.30;70.90;;;;;;5090354;28;20200;-49
2021/12/30 09:10:50;;;;;;;1.47;0.70;;;18.40;70.50;;;;;;5090503;28;20209;-50
2021/12/30 09:13:18;;;;;;;0.90;0.70;;;18.50;70.30;;;;;;5090840;28;20653;-49
2021/12/30 09:15:45;;;;;;;1.00;0.70;;;18.50;70.10;;;;;;5083800;28;20435;-51
2021/12/30 09:18:10;;;;;;;2.00;0.80;;;18.60;70.10;;;;;;5088762;28;20940;-50
2021/12/30 09:20:39;;;;;;;0.93;0.80;;;18.70;69.90;;;;;;5087067;28;20437;-50
2021/12/30 09:23:06;;;;;;;1.23;0.80;;;18.60;69.80;;;;;;5088950;28;20592;-49
2021/12/30 09:25:34;;;;;;;0.60;0.50;;;18.80;69.60;;;;;;5079610;28;20497;-51
2021/12/30 09:28:00;;;;;;;0.97;0.77;;;18.80;69.30;;;;;;5084454;28;20442;-48
2021/12/30 09:30:27;;;;;;;0.93;0.70;;;18.80;69.10;;;;;;5088181;28;20460;-49
2021/12/30 09:32:56;;;;;;;0.70;0.70;;;18.80;69.30;;;;;;5083589;28;20833;-49
2021/12/30 09:35:22;;;;;;;3.63;0.77;;;18.90;69.30;;;;;;5082175;28;20429;-49
2021/12/30 09:37:48;;;;;;;0.80;0.80;;;18.80;69.70;;;;;;5088199;28;20971;-49
2021/12/30 09:40:16;;;;;;;0.80;0.80;;;18.70;69.20;;;;;;5089624;28;20444;-51
2021/12/30 09:42:45;;;;;;;0.60;0.60;;;19.00;69.30;;;;;;5077280;28;20933;-49
2021/12/30 09:45:14;;;;;;;1.13;0.60;;;19.00;68.40;;;;;;5077387;28;20964;-50
2021/12/30 09:47:44;;;;;;;1.10;0.80;;;19.10;68.20;;;;;;5089841;28;22071;-51
2021/12/30 09:50:10;;;;;;;0.70;0.70;;;19.10;67.70;;;;;;5075989;28;20467;-53
2021/12/30 09:52:36;;;;;;;1.10;1.00;;;19.00;67.40;;;;;;5087638;28;20600;-51
2021/12/30 09:55:02;;;;;;;1.07;0.97;;;19.10;68.30;;;;;;5081681;28;20866;-52
2021/12/30 09:57:27;;;;;;;3.30;2.00;;;19.10;67.80;;;;;;5092899;28;20183;-52
2021/12/30 09:59:53;;;;;;;2.40;2.20;;;19.30;67.70;;;;;;5083941;28;20940;-50
2021/12/30 10:02:19;;;;;;;2.00;0.90;;;19.30;67.30;;;;;;5081827;28;20269;-52
2021/12/30 10:04:44;;;;;;;1.13;1.13;;;19.40;67.00;;;;;;5090241;28;20614;-50
2021/12/30 10:07:21;;;;;;;0.80;0.67;;;19.50;66.00;;;;;;5082995;28;20204;-50
2021/12/30 10:09:51;;;;;;;2.40;1.33;;;19.50;66.10;;;;;;5084267;28;20199;-49
2021/12/30 10:12:40;;;;;;;1.43;1.03;;;19.20;66.60;;;;;;5088061;28;20492;-49
2021/12/30 10:15:07;;;;;;;0.73;0.70;;;19.10;67.00;;;;;;5084055;28;20433;-50
2021/12/30 10:17:33;;;;;;;1.10;1.00;;;19.00;68.10;;;;;;5078431;28;20456;-53
2021/12/30 10:20:18;;;;;;;0.73;0.70;;;19.00;68.30;;;;;;5091186;28;20461;-52
2021/12/30 10:22:46;;;;;;;1.00;0.90;;;19.30;67.70;;;;;;5093699;28;20425;-51
2021/12/30 10:25:32;;;;;;;1.30;0.70;;;19.20;67.40;;;;;;5088276;28;20437;-50
2021/12/30 10:28:20;;;;;;;0.80;0.60;;;19.20;67.50;;;;;;5088558;28;20441;-49
2021/12/30 10:30:46;;;;;;;1.10;0.70;;;19.40;67.50;;;;;;5090146;28;20936;-49
2021/12/30 10:33:14;;;;;;;1.10;1.00;;;19.40;67.20;;;;;;5086987;28;20490;-52
2021/12/30 10:35:40;;;;;;;0.90;0.50;;;19.40;66.80;;;;;;5090145;28;20791;-49
2021/12/30 10:38:08;;;;;;;1.13;0.70;;;19.30;66.80;;;;;;5090795;28;20428;-49
2021/12/30 10:40:35;;;;;;;0.60;0.60;;;19.50;66.70;;;;;;5090021;28;20441;-49
2021/12/30 10:43:31;;;;;;;0.70;0.70;;;19.40;66.90;;;;;;5091249;28;20480;-49
2021/12/30 10:46:08;;;;;;;1.23;0.80;;;19.30;67.40;;;;;;5090744;28;20437;-49
2021/12/30 10:48:43;;;;;;;3.37;0.87;;;19.30;67.70;;;;;;5083806;28;20444;-50
2021/12/30 10:51:29;;;;;;;0.90;0.90;;;19.20;67.60;;;;;;5089237;28;20527;-49
2021/12/30 10:53:57;;;;;;;0.80;0.80;;;19.10;68.10;;;;;;5082346;28;20453;-52
2021/12/30 10:56:35;;;;;;;0.83;0.70;;;19.30;68.10;;;;;;5084457;28;20428;-49
2021/12/30 10:59:13;;;;;;;0.97;0.90;;;19.50;67.60;;;;;;5086970;28;20425;-48
2021/12/30 11:01:51;;;;;;;0.70;0.70;;;19.50;67.20;;;;;;5081827;28;20429;-52
2021/12/30 11:04:19;;;;;;;1.70;0.80;;;19.30;67.80;;;;;;5084820;28;20437;-49
2021/12/30 11:06:46;;;;;;;0.70;0.70;;;19.20;67.80;;;;;;5089390;28;20426;-49
2021/12/30 11:09:18;;;;;;;0.90;0.90;;;19.30;67.70;;;;;;5087471;28;20426;-49
2021/12/30 11:11:48;;;;;;;0.67;0.60;;;19.40;67.40;;;;;;5083315;28;20465;-53
2021/12/30 11:14:18;;;;;;;1.40;1.30;;;19.40;67.10;;;;;;5086758;28;20460;-50
2021/12/30 11:17:01;;;;;;;1.40;1.30;;;19.70;66.70;;;;;;5088829;28;20465;-50
2021/12/30 11:19:29;;;;;;;1.13;1.03;;;19.80;66.70;;;;;;5072754;28;21107;-49
2021/12/30 11:21:59;;;;;;;2.00;1.30;;;20.00;66.90;;;;;;5084313;28;20464;-52
2021/12/30 11:24:28;;;;;;;1.00;0.80;;;20.10;66.30;;;;;;5086335;28;20834;-53
2021/12/30 11:26:55;;;;;;;0.73;0.73;;;20.30;65.70;;;;;;5086538;28;20433;-53
2021/12/30 11:29:20;;;;;;;0.80;0.70;;;20.40;64.50;;;;;;5083369;28;20510;-50
2021/12/30 11:31:46;;;;;;;0.77;0.77;;;20.20;65.00;;;;;;5088043;28;20472;-52
2021/12/30 11:34:13;;;;;;;1.83;0.80;;;20.40;64.90;;;;;;5096584;28;20231;-53
2021/12/30 11:36:38;;;;;;;1.43;0.90;;;20.40;64.80;;;;;;5085807;28;20269;-53
2021/12/30 11:39:12;;;;;;;1.10;0.90;;;20.50;64.30;;;;;;5080774;28;20595;-52
2021/12/30 11:41:40;;;;;;;1.10;0.80;;;20.60;64.30;;;;;;5078170;28;20195;-52
2021/12/30 11:44:05;;;;;;;1.60;0.83;;;20.40;64.50;;;;;;5080814;28;20774;-53
2021/12/30 11:46:41;;;;;;;1.27;1.00;;;20.50;64.30;;;;;;5083261;28;20444;-52
2021/12/30 11:49:10;;;;;;;0.80;0.70;;;20.50;64.30;;;;;;5089927;28;20676;-52
2021/12/30 11:51:44;;;;;;;0.80;0.70;;;20.60;64.30;;;;;;5088324;28;20456;-52
2021/12/30 11:54:36;;;;;;;0.87;0.87;;;20.70;63.50;;;;;;5085061;28;20482;-52
2021/12/30 11:57:28;;;;;;;0.60;0.60;;;20.60;63.80;;;;;;5082568;28;20449;-52
2021/12/30 11:59:56;;;;;;;0.73;0.70;;;20.60;63.80;;;;;;5089209;28;20475;-52
2021/12/30 12:02:31;;;;;;;0.80;0.80;;;20.50;63.20;;;;;;5088294;28;20444;-53
2021/12/30 12:04:57;;;;;;;1.33;0.80;;;20.20;63.50;;;;;;5083852;28;20967;-51
2021/12/30 12:07:23;;;;;;;1.20;0.70;;;20.20;63.80;;;;;;5081721;28;20438;-52
2021/12/30 12:09:49;;;;;;;0.77;0.77;;;20.40;63.70;;;;;;5085806;28;20629;-51
2021/12/30 12:12:31;;;;;;;0.80;0.60;;;20.50;63.30;;;;;;5090096;28;20686;-52
2021/12/30 12:15:00;;;;;;;1.50;0.77;;;20.30;63.70;;;;;;5088818;28;20930;-52
2021/12/30 12:17:30;;;;;;;1.30;0.80;;;20.20;64.30;;;;;;5084924;28;20432;-52
2021/12/30 12:19:56;;;;;;;0.60;0.60;;;20.40;63.90;;;;;;5090711;28;20641;-53
2021/12/30 12:22:22;;;;;;;0.80;0.67;;;20.40;63.50;;;;;;5086835;28;20445;-50
2021/12/30 12:25:19;;;;;;;1.30;0.53;;;20.40;64.00;;;;;;5086599;28;20523;-51
2021/12/30 12:27:51;;;;;;;0.87;0.80;;;20.60;63.50;;;;;;5089496;28;20202;-52
2021/12/30 12:30:32;;;;;;;0.80;0.80;;;20.40;63.50;;;;;;5075793;28;20572;-52
2021/12/30 12:33:00;;;;;;;0.70;0.70;;;20.40;63.00;;;;;;5089698;28;20477;-54
2021/12/30 12:35:31;;;;;;;1.47;0.60;;;20.60;62.90;;;;;;5084744;28;20569;-49
2021/12/30 12:37:59;;;;;;;1.20;0.83;;;20.40;63.00;;;;;;5090866;28;20833;-52
2021/12/30 12:40:32;;;;;;;0.73;0.70;;;20.50;63.40;;;;;;5085554;28;21894;-52
2021/12/30 12:43:08;;;;;;;1.37;0.70;;;20.60;63.30;;;;;;5085356;28;20445;-52
2021/12/30 12:45:50;;;;;;;2.20;0.87;;;20.70;62.90;;;;;;5085765;28;20448;-52
2021/12/30 12:48:23;;;;;;;0.67;0.67;;;20.90;62.50;;;;;;5084944;28;20429;-52
2021/12/30 12:50:53;;;;;;;0.60;0.60;;;20.80;62.80;;;;;;5085834;28;20441;-52